Time;durP1;ratioP1;P1;durP2;ratioP2;P2;SDS_P1;SDS_P2;PMS_P1;PMS_P2;Temp;Humidity;BMP_temperature;BMP_pressure;BME280_temperature;BME280_humidity;BME280_pressure;Samples;Min_cycle;Max_cycle;Signal;HPM_P1;HPM_P2
2022/04/04 00:01:51;;;;;;;3.25;2.95;;;4.00;99.90;;;;;;5060909;28;20199;-68
2022/04/04 00:04:18;;;;;;;3.83;2.63;;;3.90;99.90;;;;;;5052521;28;20234;-68
2022/04/04 00:06:45;;;;;;;3.83;3.13;;;3.90;99.90;;;;;;5052864;28;20770;-67
2022/04/04 00:09:12;;;;;;;3.80;2.40;;;3.90;99.90;;;;;;5052819;28;20586;-68
2022/04/04 00:11:39;;;;;;;4.07;3.05;;;3.90;99.90;;;;;;5044932;28;20203;-67
2022/04/04 00:14:12;;;;;;;3.65;2.88;;;3.90;99.90;;;;;;5052788;28;20228;-69
2022/04/04 00:16:39;;;;;;;3.85;3.42;;;3.90;99.90;;;;;;5052840;28;20268;-69
2022/04/04 00:19:08;;;;;;;7.40;3.22;;;3.90;99.90;;;;;;5052240;28;20199;-67
2022/04/04 00:21:36;;;;;;;4.45;2.97;;;3.90;99.90;;;;;;5040424;28;20200;-69
2022/04/04 00:24:02;;;;;;;4.13;3.20;;;4.00;99.90;;;;;;5052355;28;20315;-68
2022/04/04 00:26:30;;;;;;;3.70;3.20;;;4.00;99.90;;;;;;5044538;28;20206;-66
2022/04/04 00:28:57;;;;;;;6.47;4.28;;;4.00;99.90;;;;;;5049791;28;20301;-66
2022/04/04 00:31:23;;;;;;;5.47;3.70;;;4.00;99.90;;;;;;5052194;28;20281;-68
2022/04/04 00:33:50;;;;;;;6.55;4.75;;;4.00;99.90;;;;;;5053242;28;20227;-66
2022/04/04 00:36:19;;;;;;;3.47;3.17;;;4.00;99.90;;;;;;5052752;28;20203;-66
2022/04/04 00:38:45;;;;;;;4.53;3.47;;;4.00;99.90;;;;;;5048659;28;20279;-66
2022/04/04 00:41:15;;;;;;;6.60;4.50;;;4.00;99.90;;;;;;5052267;28;20291;-67
2022/04/04 00:43:42;;;;;;;4.75;3.15;;;4.00;99.90;;;;;;5052376;28;20257;-67
2022/04/04 00:46:09;;;;;;;5.00;2.95;;;4.10;99.90;;;;;;5052508;28;20560;-67
2022/04/04 00:48:36;;;;;;;5.78;3.63;;;4.00;99.90;;;;;;5052802;28;20302;-68
2022/04/04 00:51:04;;;;;;;7.75;3.72;;;4.00;99.90;;;;;;5050974;28;20207;-66
2022/04/04 00:53:33;;;;;;;5.68;3.30;;;4.00;99.90;;;;;;5052525;28;20196;-67
2022/04/04 00:56:00;;;;;;;3.97;3.30;;;4.00;99.90;;;;;;5052048;28;20202;-68
2022/04/04 00:58:30;;;;;;;5.68;3.83;;;4.00;99.90;;;;;;5052132;28;20664;-67
2022/04/04 01:00:58;;;;;;;4.95;3.47;;;4.00;99.90;;;;;;5051818;28;20219;-66
2022/04/04 01:03:25;;;;;;;4.20;3.28;;;3.90;99.90;;;;;;5056925;28;20256;-66
2022/04/04 01:05:52;;;;;;;4.07;2.90;;;4.00;99.90;;;;;;5055628;28;20298;-66
2022/04/04 01:08:19;;;;;;;4.57;3.45;;;4.00;99.90;;;;;;5052474;28;20639;-68
2022/04/04 01:10:47;;;;;;;5.75;3.38;;;3.90;99.90;;;;;;5051920;28;20291;-68
2022/04/04 01:13:14;;;;;;;3.55;3.25;;;3.90;99.90;;;;;;5052120;28;20577;-66
2022/04/04 01:15:41;;;;;;;6.18;3.80;;;4.00;99.90;;;;;;5052890;28;20229;-67
2022/04/04 01:18:09;;;;;;;6.18;3.60;;;4.00;99.90;;;;;;5052529;28;20196;-66
2022/04/04 01:20:36;;;;;;;4.30;3.10;;;4.00;99.90;;;;;;5051607;28;20209;-67
2022/04/04 01:23:04;;;;;;;3.85;3.15;;;3.90;99.90;;;;;;5051976;28;20660;-68
2022/04/04 01:25:35;;;;;;;4.55;3.22;;;3.90;99.90;;;;;;5048282;28;20267;-67
2022/04/04 01:28:02;;;;;;;4.85;4.10;;;3.90;99.90;;;;;;5049789;28;20675;-68
2022/04/04 01:30:31;;;;;;;3.92;3.05;;;3.90;99.90;;;;;;5047197;28;20286;-69
2022/04/04 01:32:57;;;;;;;5.45;3.42;;;3.90;99.90;;;;;;5052404;28;20210;-67
2022/04/04 01:35:24;;;;;;;4.57;2.92;;;3.90;99.90;;;;;;5052439;28;20585;-67
2022/04/04 01:37:52;;;;;;;7.32;3.38;;;3.90;99.90;;;;;;5051778;28;20207;-68
2022/04/04 01:40:19;;;;;;;9.73;4.15;;;3.90;99.90;;;;;;5051008;28;20255;-66
2022/04/04 01:42:50;;;;;;;4.28;3.35;;;3.90;99.90;;;;;;5051875;28;20241;-66
2022/04/04 01:45:17;;;;;;;4.22;3.70;;;3.90;99.90;;;;;;5051695;28;20251;-67
2022/04/04 01:47:45;;;;;;;6.07;3.75;;;3.90;99.90;;;;;;5048832;28;20282;-67
2022/04/04 01:50:12;;;;;;;9.85;5.15;;;3.90;99.90;;;;;;5050770;28;20221;-68
2022/04/04 01:52:39;;;;;;;7.40;4.05;;;3.90;99.90;;;;;;5051935;28;20282;-69
2022/04/04 01:55:07;;;;;;;7.43;3.70;;;3.90;99.90;;;;;;5051965;28;20226;-67
2022/04/04 01:57:35;;;;;;;6.53;3.90;;;3.90;99.90;;;;;;5051818;28;20208;-66
2022/04/04 02:00:05;;;;;;;4.10;3.67;;;3.90;99.90;;;;;;5051210;28;20211;-67
2022/04/04 02:02:33;;;;;;;6.63;3.33;;;3.90;99.90;;;;;;5047234;28;20196;-67
2022/04/04 02:05:00;;;;;;;6.95;3.22;;;3.90;99.90;;;;;;5055099;28;20238;-67
2022/04/04 02:07:27;;;;;;;11.32;4.10;;;3.90;99.90;;;;;;5054828;28;20206;-66
2022/04/04 02:09:58;;;;;;;6.20;4.00;;;3.90;99.90;;;;;;5054567;28;20252;-67
2022/04/04 02:12:25;;;;;;;6.00;4.47;;;3.90;99.90;;;;;;5055357;28;20662;-67
2022/04/04 02:14:52;;;;;;;4.95;3.35;;;4.00;99.90;;;;;;5054686;28;20223;-66
2022/04/04 02:17:20;;;;;;;6.20;3.95;;;4.00;99.90;;;;;;5055297;28;20196;-66
2022/04/04 02:19:48;;;;;;;9.10;3.90;;;3.90;99.90;;;;;;5054342;28;20269;-68
2022/04/04 02:22:15;;;;;;;5.53;4.10;;;4.00;99.90;;;;;;5054395;28;20214;-68
2022/04/04 02:24:42;;;;;;;5.03;3.95;;;4.00;99.90;;;;;;5054872;28;20641;-66
2022/04/04 02:27:09;;;;;;;4.70;3.95;;;4.00;99.90;;;;;;5054644;28;20616;-67
2022/04/04 02:29:35;;;;;;;7.18;4.10;;;4.00;99.90;;;;;;5054456;28;20279;-67
2022/04/04 02:32:03;;;;;;;4.93;4.30;;;3.90;99.90;;;;;;5055347;28;20298;-66
2022/04/04 02:34:31;;;;;;;6.28;4.10;;;4.00;99.90;;;;;;5054162;28;20215;-68
2022/04/04 02:36:58;;;;;;;8.65;5.40;;;4.00;99.90;;;;;;5054896;28;20209;-68
2022/04/04 02:39:25;;;;;;;5.40;4.15;;;4.00;99.90;;;;;;5055023;28;20253;-68
2022/04/04 02:41:52;;;;;;;5.53;3.55;;;4.00;99.90;;;;;;5054035;28;20214;-67
2022/04/04 02:44:18;;;;;;;5.72;4.30;;;3.90;99.90;;;;;;5054667;28;20310;-69
2022/04/04 02:46:45;;;;;;;6.90;4.38;;;4.00;99.90;;;;;;5054847;28;20200;-68
2022/04/04 02:49:12;;;;;;;7.80;4.50;;;4.00;99.90;;;;;;5056703;28;20221;-68
2022/04/04 02:51:41;;;;;;;4.72;3.67;;;4.00;99.90;;;;;;5053933;28;20210;-67
2022/04/04 02:54:07;;;;;;;5.47;4.30;;;4.10;99.90;;;;;;5054172;28;20723;-67
2022/04/04 02:56:34;;;;;;;10.93;5.55;;;4.00;99.90;;;;;;5054476;28;20206;-68
2022/04/04 02:59:01;;;;;;;6.35;4.07;;;4.00;99.90;;;;;;5055537;28;20599;-68
2022/04/04 03:01:28;;;;;;;9.02;4.72;;;4.00;99.90;;;;;;5063668;28;20287;-66
2022/04/04 03:03:56;;;;;;;7.57;4.95;;;4.10;99.90;;;;;;5053690;28;20661;-66
2022/04/04 03:06:23;;;;;;;7.07;5.05;;;4.10;99.90;;;;;;5054078;28;20206;-66
2022/04/04 03:08:51;;;;;;;11.57;4.53;;;4.10;99.90;;;;;;5054208;28;20205;-66
2022/04/04 03:11:19;;;;;;;5.97;3.60;;;4.10;99.90;;;;;;5053884;28;20223;-67
2022/04/04 03:13:46;;;;;;;6.10;4.82;;;4.20;99.90;;;;;;5053426;28;20710;-69
2022/04/04 03:16:14;;;;;;;6.75;4.47;;;4.20;99.90;;;;;;5053907;28;20208;-67
2022/04/04 03:18:41;;;;;;;5.88;4.20;;;4.30;99.90;;;;;;5053904;28;20206;-65
2022/04/04 03:21:08;;;;;;;5.57;5.03;;;4.30;99.90;;;;;;5052508;28;20206;-66
2022/04/04 03:23:39;;;;;;;8.70;5.05;;;4.30;99.90;;;;;;5053334;28;20247;-67
2022/04/04 03:26:09;;;;;;;7.05;4.90;;;4.20;99.90;;;;;;5053635;28;20305;-67
2022/04/04 03:28:36;;;;;;;6.18;4.90;;;4.30;99.90;;;;;;5053594;28;20195;-67
2022/04/04 03:31:04;;;;;;;9.77;5.50;;;4.20;99.90;;;;;;5052984;28;20204;-68
2022/04/04 03:33:31;;;;;;;4.85;4.32;;;4.30;99.90;;;;;;5053479;28;20223;-66
2022/04/04 03:36:00;;;;;;;7.30;5.55;;;4.20;99.90;;;;;;5053487;28;20214;-68
2022/04/04 03:38:27;;;;;;;9.10;6.60;;;4.30;99.90;;;;;;5053755;28;20290;-68
2022/04/04 03:40:55;;;;;;;7.70;6.10;;;4.30;99.90;;;;;;5053745;28;20210;-64
2022/04/04 03:43:24;;;;;;;7.32;6.40;;;4.30;99.90;;;;;;5053443;28;20198;-68
2022/04/04 03:45:52;;;;;;;12.65;6.50;;;4.30;99.90;;;;;;5053335;28;20203;-66
2022/04/04 03:48:19;;;;;;;9.07;5.30;;;4.30;99.90;;;;;;5053277;28;20654;-68
2022/04/04 03:50:47;;;;;;;8.73;5.50;;;4.30;99.90;;;;;;5052327;28;20202;-67
2022/04/04 03:53:14;;;;;;;7.43;6.68;;;4.30;99.90;;;;;;5052820;28;20218;-66
2022/04/04 03:55:43;;;;;;;8.75;6.30;;;4.30;99.90;;;;;;5052957;28;20219;-68
2022/04/04 03:58:11;;;;;;;12.68;7.15;;;4.30;99.90;;;;;;5053169;28;20661;-67
2022/04/04 04:00:40;;;;;;;6.80;5.63;;;4.20;99.90;;;;;;5052623;28;20563;-68
2022/04/04 04:03:08;;;;;;;7.32;6.43;;;4.30;99.90;;;;;;5052772;28;20697;-67
2022/04/04 04:05:35;;;;;;;10.55;7.28;;;4.30;99.90;;;;;;5053011;28;20227;-66
2022/04/04 04:08:03;;;;;;;15.02;7.53;;;4.30;99.90;;;;;;5052558;28;20726;-66
2022/04/04 04:10:30;;;;;;;12.68;7.63;;;4.30;99.90;;;;;;5052586;28;20592;-66
2022/04/04 04:12:58;;;;;;;9.57;7.13;;;4.30;99.90;;;;;;5053165;28;20204;-68
2022/04/04 04:15:25;;;;;;;8.57;6.30;;;4.30;99.90;;;;;;5053073;28;20250;-67
2022/04/04 04:17:54;;;;;;;11.88;8.32;;;4.40;99.90;;;;;;5052962;28;20219;-67
2022/04/04 04:20:22;;;;;;;10.05;7.90;;;4.30;99.90;;;;;;5052676;28;20210;-66
2022/04/04 04:22:52;;;;;;;12.23;9.32;;;4.30;99.90;;;;;;5051543;28;20219;-68
2022/04/04 04:25:20;;;;;;;10.75;8.52;;;4.40;99.90;;;;;;5050705;28;20303;-68
2022/04/04 04:27:47;;;;;;;10.93;8.70;;;4.40;99.90;;;;;;5052655;28;20258;-66
2022/04/04 04:30:15;;;;;;;11.60;9.07;;;4.40;99.90;;;;;;5051626;28;20207;-66
2022/04/04 04:32:44;;;;;;;11.85;9.02;;;4.30;99.90;;;;;;5052215;28;20210;-68
2022/04/04 04:35:13;;;;;;;10.98;9.02;;;4.40;99.90;;;;;;5051092;28;20693;-66
2022/04/04 04:37:40;;;;;;;9.57;7.35;;;4.50;99.90;;;;;;5047149;28;20303;-68
2022/04/04 04:40:08;;;;;;;11.70;8.57;;;4.40;99.90;;;;;;5052167;28;20241;-67
2022/04/04 04:42:35;;;;;;;11.32;9.27;;;4.40;99.90;;;;;;5046331;28;20625;-68
2022/04/04 04:45:03;;;;;;;14.10;9.40;;;4.40;99.90;;;;;;5052542;28;20607;-67
2022/04/04 04:47:30;;;;;;;15.75;10.90;;;4.40;99.90;;;;;;5045756;28;20211;-68
2022/04/04 04:49:57;;;;;;;12.90;9.60;;;4.40;99.90;;;;;;5052001;28;20627;-65
2022/04/04 04:52:26;;;;;;;12.35;10.50;;;4.40;99.90;;;;;;5052428;28;20205;-65
2022/04/04 04:54:53;;;;;;;14.23;10.98;;;4.40;99.90;;;;;;5052166;28;20238;-69
2022/04/04 04:57:21;;;;;;;14.05;10.25;;;4.50;99.90;;;;;;5052189;28;20250;-67
2022/04/04 04:59:49;;;;;;;16.05;11.10;;;4.50;99.90;;;;;;5051881;28;20253;-68
2022/04/04 05:02:15;;;;;;;14.57;10.90;;;4.50;99.90;;;;;;5051996;28;20199;-65
2022/04/04 05:04:42;;;;;;;13.80;10.00;;;4.50;99.90;;;;;;5051935;28;20217;-67
2022/04/04 05:07:09;;;;;;;15.15;10.18;;;4.50;99.90;;;;;;5051881;28;20200;-67
2022/04/04 05:09:38;;;;;;;13.80;10.55;;;4.50;99.90;;;;;;5051730;28;20299;-69
2022/04/04 05:12:06;;;;;;;13.90;10.63;;;4.50;99.90;;;;;;5050646;28;20839;-68
2022/04/04 05:14:33;;;;;;;13.02;10.32;;;4.60;99.90;;;;;;5051527;28;20720;-68
2022/04/04 05:17:00;;;;;;;15.40;11.05;;;4.50;99.90;;;;;;5050834;28;20209;-66
2022/04/04 05:19:28;;;;;;;14.68;11.93;;;4.60;99.90;;;;;;5052130;28;20514;-68
2022/04/04 05:21:55;;;;;;;13.15;11.38;;;4.60;99.90;;;;;;5050433;28;20250;-66
2022/04/04 05:24:22;;;;;;;14.38;10.82;;;4.60;99.90;;;;;;5051858;28;20226;-66
2022/04/04 05:26:50;;;;;;;13.50;10.73;;;4.70;99.90;;;;;;5051942;28;20334;-67
2022/04/04 05:29:17;;;;;;;13.02;11.40;;;4.70;99.90;;;;;;5055187;28;20207;-69
2022/04/04 05:31:45;;;;;;;14.90;11.40;;;4.80;99.90;;;;;;5056424;28;20223;-69
2022/04/04 05:34:13;;;;;;;12.65;9.40;;;4.80;99.90;;;;;;5057666;28;20220;-67
2022/04/04 05:36:40;;;;;;;13.13;9.85;;;4.80;99.90;;;;;;5053531;28;20283;-68
2022/04/04 05:39:07;;;;;;;11.30;10.07;;;4.90;99.90;;;;;;5055784;28;20207;-66
2022/04/04 05:41:36;;;;;;;16.35;11.55;;;4.90;99.90;;;;;;5055403;28;20210;-69
2022/04/04 05:44:06;;;;;;;15.93;11.60;;;5.00;99.90;;;;;;5054894;28;20234;-69
2022/04/04 05:46:34;;;;;;;11.98;9.43;;;4.90;99.90;;;;;;5055679;28;20658;-68
2022/04/04 05:49:01;;;;;;;19.48;10.82;;;4.90;99.90;;;;;;5055790;28;20290;-68
2022/04/04 05:51:28;;;;;;;14.40;11.25;;;4.90;99.90;;;;;;5054699;28;20289;-69
2022/04/04 05:53:55;;;;;;;13.60;10.50;;;5.00;99.90;;;;;;5055123;28;20265;-69
2022/04/04 05:56:22;;;;;;;17.73;12.00;;;5.00;99.90;;;;;;5055399;28;20202;-67
2022/04/04 05:58:49;;;;;;;13.82;11.35;;;4.90;99.90;;;;;;5055714;28;20230;-70
2022/04/04 06:01:18;;;;;;;14.32;9.80;;;5.00;99.90;;;;;;5054936;28;20297;-68
2022/04/04 06:03:45;;;;;;;12.68;10.85;;;4.90;99.90;;;;;;5055866;28;20306;-68
2022/04/04 06:06:12;;;;;;;19.92;13.50;;;4.80;99.90;;;;;;5046436;28;20282;-71
2022/04/04 06:08:39;;;;;;;13.32;11.68;;;4.90;99.90;;;;;;5054907;28;20203;-66
2022/04/04 06:11:06;;;;;;;14.40;11.05;;;4.90;99.90;;;;;;5054504;28;20554;-65
2022/04/04 06:13:34;;;;;;;16.67;10.85;;;4.90;99.90;;;;;;5055383;28;20372;-68
2022/04/04 06:16:01;;;;;;;12.80;11.32;;;4.90;99.90;;;;;;5054555;28;20516;-67
2022/04/04 06:18:30;;;;;;;20.70;10.27;;;4.90;99.90;;;;;;5046365;28;20202;-68
2022/04/04 06:20:57;;;;;;;12.98;9.90;;;4.90;99.90;;;;;;5044688;28;20713;-69
2022/04/04 06:23:28;;;;;;;12.73;11.40;;;4.90;99.90;;;;;;5043766;28;20565;-66
2022/04/04 06:25:55;;;;;;;11.45;10.25;;;4.80;99.90;;;;;;5045071;28;20310;-68
2022/04/04 06:28:22;;;;;;;16.02;11.30;;;4.80;99.90;;;;;;5044432;28;20196;-66
2022/04/04 06:30:49;;;;;;;16.02;11.60;;;4.70;99.90;;;;;;5046901;28;20597;-66
2022/04/04 06:33:16;;;;;;;13.85;11.57;;;4.70;99.90;;;;;;5054109;28;20199;-66
2022/04/04 06:35:44;;;;;;;14.50;12.25;;;4.70;99.90;;;;;;5050864;28;20577;-66
2022/04/04 06:38:12;;;;;;;13.77;12.30;;;4.70;99.90;;;;;;5040310;28;20192;-67
2022/04/04 06:40:39;;;;;;;20.27;14.27;;;4.70;99.90;;;;;;5047736;28;20204;-66
2022/04/04 06:43:06;;;;;;;15.80;12.52;;;4.70;99.90;;;;;;5040495;28;20196;-68
2022/04/04 06:45:33;;;;;;;12.60;11.30;;;4.70;99.90;;;;;;5047841;28;20220;-69
2022/04/04 06:48:00;;;;;;;14.20;12.70;;;4.70;99.90;;;;;;5053828;28;20214;-67
2022/04/04 06:50:29;;;;;;;17.92;14.85;;;4.60;99.90;;;;;;5049171;28;20218;-69
2022/04/04 06:52:58;;;;;;;19.40;14.45;;;4.70;99.90;;;;;;5043703;28;20269;-68
2022/04/04 06:55:25;;;;;;;16.70;14.43;;;4.60;99.90;;;;;;5044680;28;20231;-66
2022/04/04 06:57:52;;;;;;;19.85;14.65;;;4.70;99.90;;;;;;5044188;28;20767;-70
2022/04/04 07:00:19;;;;;;;14.77;12.65;;;4.70;99.90;;;;;;5044421;28;20268;-68
2022/04/04 07:02:46;;;;;;;17.85;13.57;;;4.60;99.90;;;;;;5049642;28;20560;-67
2022/04/04 07:05:12;;;;;;;17.23;14.85;;;4.70;99.90;;;;;;5053473;28;20225;-68
2022/04/04 07:07:40;;;;;;;16.20;13.77;;;4.60;99.90;;;;;;5058576;28;20292;-69
2022/04/04 07:10:10;;;;;;;15.45;13.85;;;4.60;99.90;;;;;;5048067;28;20651;-68
2022/04/04 07:12:40;;;;;;;18.02;15.60;;;4.50;99.90;;;;;;5053995;28;20207;-71
2022/04/04 07:15:10;;;;;;;21.23;17.25;;;4.60;99.90;;;;;;5053127;28;20219;-70
2022/04/04 07:17:37;;;;;;;17.40;14.77;;;4.60;99.90;;;;;;5053717;28;20245;-69
2022/04/04 07:20:05;;;;;;;20.08;17.15;;;4.40;99.90;;;;;;5053276;28;20280;-69
2022/04/04 07:22:34;;;;;;;21.88;18.38;;;4.40;99.90;;;;;;5047725;28;20206;-69
2022/04/04 07:25:02;;;;;;;19.85;17.75;;;4.30;99.90;;;;;;5053452;28;20307;-71
2022/04/04 07:27:30;;;;;;;20.52;18.33;;;4.30;99.90;;;;;;5053469;28;20568;-69
2022/04/04 07:29:57;;;;;;;20.85;17.00;;;4.30;99.90;;;;;;5053043;28;20230;-68
2022/04/04 07:32:24;;;;;;;23.90;19.85;;;4.30;99.90;;;;;;5053648;28;20204;-68
2022/04/04 07:34:51;;;;;;;24.73;18.70;;;4.40;99.90;;;;;;5053046;28;20644;-70
2022/04/04 07:37:18;;;;;;;18.73;16.35;;;4.40;99.90;;;;;;5053484;28;20204;-70
2022/04/04 07:39:44;;;;;;;20.45;18.27;;;4.40;99.90;;;;;;5042256;28;20200;-72
2022/04/04 07:42:13;;;;;;;20.20;17.80;;;4.50;99.90;;;;;;5052165;28;20642;-71
2022/04/04 07:44:42;;;;;;;21.55;15.27;;;4.40;99.90;;;;;;5053236;28;20223;-69
2022/04/04 07:47:09;;;;;;;22.00;16.63;;;4.50;99.90;;;;;;5052884;28;20243;-69
2022/04/04 07:49:36;;;;;;;19.52;15.48;;;4.50;99.90;;;;;;5049506;28;20290;-70
2022/04/04 07:52:05;;;;;;;18.25;15.68;;;4.60;99.90;;;;;;5053277;28;20199;-69
2022/04/04 07:54:32;;;;;;;20.50;16.60;;;4.60;99.90;;;;;;5038768;28;20675;-69
2022/04/04 07:56:59;;;;;;;17.50;13.25;;;4.50;99.90;;;;;;5043270;28;20290;-71
2022/04/04 07:59:26;;;;;;;18.40;13.55;;;4.60;99.90;;;;;;5046157;28;20227;-68
2022/04/04 08:01:55;;;;;;;18.98;15.07;;;4.60;99.90;;;;;;5052683;28;21022;-69
2022/04/04 08:04:21;;;;;;;16.05;12.68;;;4.60;99.90;;;;;;5044934;28;20316;-70
2022/04/04 08:06:50;;;;;;;13.25;11.82;;;4.60;99.90;;;;;;5052795;28;20198;-68
2022/04/04 08:09:17;;;;;;;15.45;13.63;;;4.70;99.90;;;;;;5052441;28;20572;-69
2022/04/04 08:11:44;;;;;;;13.23;11.40;;;4.90;99.90;;;;;;5053883;28;20655;-72
2022/04/04 08:14:11;;;;;;;13.70;12.30;;;4.90;99.90;;;;;;5042919;28;20220;-68
2022/04/04 08:16:38;;;;;;;15.07;12.23;;;4.90;99.90;;;;;;5037561;28;20243;-68
2022/04/04 08:19:06;;;;;;;12.07;9.82;;;4.90;99.90;;;;;;5047396;28;20707;-68
2022/04/04 08:21:34;;;;;;;14.55;10.05;;;5.10;99.90;;;;;;5045113;28;20201;-69
2022/04/04 08:24:01;;;;;;;11.60;10.40;;;5.20;99.90;;;;;;5052195;28;20238;-69
2022/04/04 08:26:28;;;;;;;11.13;9.15;;;5.40;99.90;;;;;;5040505;28;20219;-72
2022/04/04 08:28:55;;;;;;;10.32;8.80;;;5.50;99.90;;;;;;5048276;28;20204;-70
2022/04/04 08:31:21;;;;;;;13.35;9.57;;;5.50;99.90;;;;;;5048569;28;20539;-69
2022/04/04 08:33:48;;;;;;;13.32;9.35;;;5.70;99.90;;;;;;5047617;28;20219;-67
2022/04/04 08:36:17;;;;;;;11.60;9.13;;;5.90;99.90;;;;;;5052004;28;20314;-69
2022/04/04 08:38:44;;;;;;;12.32;8.35;;;5.90;99.90;;;;;;5052389;28;20200;-68
2022/04/04 08:41:11;;;;;;;10.63;7.80;;;6.00;99.90;;;;;;5051433;28;20606;-68
2022/04/04 08:43:40;;;;;;;9.13;8.10;;;6.10;99.90;;;;;;5050856;28;20209;-69
2022/04/04 08:46:08;;;;;;;9.98;7.95;;;6.10;99.90;;;;;;5038541;28;20604;-67
2022/04/04 08:48:36;;;;;;;10.48;8.18;;;6.20;99.90;;;;;;5045922;28;20290;-69
2022/04/04 08:51:03;;;;;;;10.57;8.43;;;6.00;99.90;;;;;;5051043;28;20282;-69
2022/04/04 08:53:31;;;;;;;18.25;9.38;;;6.00;99.90;;;;;;5052088;28;20195;-69
2022/04/04 08:55:59;;;;;;;8.73;7.70;;;6.10;99.90;;;;;;5055101;28;20246;-68
2022/04/04 08:58:26;;;;;;;11.23;8.52;;;6.00;99.90;;;;;;5052537;28;20287;-66
2022/04/04 09:00:53;;;;;;;11.57;7.85;;;6.00;99.90;;;;;;5051266;28;20203;-68
2022/04/04 09:03:22;;;;;;;10.90;7.53;;;6.10;99.90;;;;;;5051846;28;20388;-66
2022/04/04 09:05:53;;;;;;;10.32;7.55;;;5.90;99.90;;;;;;5051591;28;20697;-66
2022/04/04 09:08:21;;;;;;;12.48;8.45;;;6.00;99.90;;;;;;5044839;28;20585;-67
2022/04/04 09:10:54;;;;;;;9.15;8.25;;;5.90;99.90;;;;;;5051882;28;20313;-68
2022/04/04 09:13:23;;;;;;;11.65;9.95;;;5.80;99.90;;;;;;5030881;28;20254;-68
2022/04/04 09:15:52;;;;;;;13.70;9.38;;;5.80;99.90;;;;;;5045959;28;20215;-68
2022/04/04 09:18:25;;;;;;;11.02;9.07;;;5.70;99.90;;;;;;5046150;28;20203;-65
2022/04/04 09:20:53;;;;;;;11.93;9.25;;;5.70;99.90;;;;;;5050418;28;20208;-67
2022/04/04 09:23:19;;;;;;;10.65;9.10;;;5.70;99.90;;;;;;5051398;28;20634;-67
2022/04/04 09:25:46;;;;;;;16.98;9.73;;;5.60;99.90;;;;;;5055714;28;20207;-68
2022/04/04 09:28:20;;;;;;;11.13;8.93;;;5.60;99.90;;;;;;5055517;28;20656;-67
2022/04/04 09:31:08;;;;;;;12.07;10.05;;;5.70;99.90;;;;;;5054714;28;20210;-67
2022/04/04 09:33:39;;;;;;;14.05;10.77;;;5.60;99.90;;;;;;5049356;28;20646;-69
2022/04/04 09:36:07;;;;;;;12.25;10.30;;;5.60;99.90;;;;;;5055707;28;20281;-69
2022/04/04 09:38:34;;;;;;;11.95;10.73;;;5.60;99.90;;;;;;5056875;28;20204;-66
2022/04/04 09:41:05;;;;;;;12.90;10.27;;;5.50;99.90;;;;;;5060469;28;20208;-67
2022/04/04 09:43:51;;;;;;;13.05;11.40;;;5.50;99.90;;;;;;5055058;28;20554;-67
2022/04/04 09:46:18;;;;;;;13.77;11.02;;;5.50;99.90;;;;;;5052533;28;20206;-67
2022/04/04 09:49:06;;;;;;;17.08;12.38;;;5.40;99.90;;;;;;5054884;28;20607;-69
2022/04/04 09:51:44;;;;;;;13.73;11.68;;;5.40;99.90;;;;;;5054254;28;20616;-65
2022/04/04 09:54:14;;;;;;;16.20;13.63;;;5.40;99.90;;;;;;5054806;28;20313;-67
2022/04/04 09:56:41;;;;;;;15.90;12.85;;;5.40;99.90;;;;;;5055689;28;20208;-67
2022/04/04 09:59:11;;;;;;;14.48;12.18;;;5.40;99.90;;;;;;5053768;28;20572;-69
2022/04/04 10:01:39;;;;;;;14.80;12.90;;;5.30;99.90;;;;;;5052443;28;20672;-68
2022/04/04 10:04:08;;;;;;;16.27;12.30;;;5.30;99.90;;;;;;5054689;28;20310;-67
2022/04/04 10:06:36;;;;;;;13.30;11.85;;;5.20;99.90;;;;;;5054727;28;20675;-69
2022/04/04 10:09:04;;;;;;;16.63;13.18;;;5.20;99.90;;;;;;5054580;28;20207;-73
2022/04/04 10:11:34;;;;;;;19.55;14.07;;;5.20;99.90;;;;;;5054579;28;20195;-68
2022/04/04 10:14:01;;;;;;;15.60;13.93;;;5.20;99.90;;;;;;5054955;28;20277;-70
2022/04/04 10:16:31;;;;;;;15.57;13.88;;;5.30;99.90;;;;;;5054454;28;20257;-69
2022/04/04 10:18:58;;;;;;;17.25;14.07;;;5.30;99.90;;;;;;5052578;28;20226;-70
2022/04/04 10:21:26;;;;;;;18.33;14.48;;;5.40;99.90;;;;;;5057015;28;20319;-67
2022/04/04 10:23:57;;;;;;;14.98;13.43;;;5.30;99.90;;;;;;5053188;28;20310;-68
2022/04/04 10:26:28;;;;;;;20.38;13.75;;;5.30;99.90;;;;;;5054512;28;20294;-68
2022/04/04 10:29:09;;;;;;;19.52;15.27;;;5.40;99.90;;;;;;5054453;28;20204;-68
2022/04/04 10:31:51;;;;;;;16.20;14.50;;;5.40;99.90;;;;;;5048146;28;20199;-69
2022/04/04 10:34:19;;;;;;;17.45;14.07;;;5.40;99.90;;;;;;5052795;28;20227;-71
2022/04/04 10:36:58;;;;;;;17.13;14.48;;;5.40;99.90;;;;;;5054545;28;20219;-69
2022/04/04 10:39:36;;;;;;;18.25;14.98;;;5.50;99.90;;;;;;5054529;28;20615;-67
2022/04/04 10:42:23;;;;;;;14.90;13.30;;;5.50;99.90;;;;;;5053179;28;20207;-68
2022/04/04 10:44:50;;;;;;;15.85;14.18;;;5.50;99.90;;;;;;5050239;28;20282;-70
2022/04/04 10:47:30;;;;;;;14.40;12.68;;;5.50;99.90;;;;;;5054661;28;20200;-68
2022/04/04 10:49:58;;;;;;;20.02;15.35;;;5.60;99.90;;;;;;5049284;28;20212;-67
2022/04/04 10:52:42;;;;;;;15.70;14.10;;;5.70;99.90;;;;;;5053483;28;20331;-69
2022/04/04 10:55:44;;;;;;;15.40;13.80;;;5.70;99.90;;;;;;5055177;28;20261;-68
2022/04/04 10:58:13;;;;;;;16.10;13.77;;;5.70;99.90;;;;;;5053348;28;20199;-68
2022/04/04 11:01:03;;;;;;;21.13;15.00;;;5.80;99.90;;;;;;5053158;28;20203;-66
2022/04/04 11:03:32;;;;;;;15.00;13.50;;;5.80;99.90;;;;;;5049134;28;20532;-69
2022/04/04 11:09:12;;;;;;;15.75;14.18;;;5.80;99.90;;;;;;5051223;28;20236;-70
2022/04/04 11:11:52;;;;;;;15.48;13.35;;;5.90;99.90;;;;;;5035160;28;20237;-68
2022/04/04 11:14:42;;;;;;;14.63;13.13;;;5.90;99.90;;;;;;5035681;28;20310;-66
2022/04/04 11:17:23;;;;;;;14.63;11.90;;;5.90;99.90;;;;;;5052625;28;20680;-69
2022/04/04 11:19:53;;;;;;;15.60;12.95;;;5.90;99.90;;;;;;5052612;28;20199;-67
2022/04/04 11:22:21;;;;;;;13.88;12.48;;;5.90;99.90;;;;;;5048842;28;20208;-69
2022/04/04 11:24:53;;;;;;;15.75;13.93;;;5.90;99.90;;;;;;5053988;28;20230;-68
2022/04/04 11:27:20;;;;;;;15.32;13.82;;;6.00;99.90;;;;;;5046243;28;20253;-68
2022/04/04 11:29:47;;;;;;;14.48;12.85;;;6.00;99.90;;;;;;5055094;28;20195;-71
2022/04/04 11:32:16;;;;;;;17.40;15.65;;;6.00;99.90;;;;;;5053735;28;20204;-71
2022/04/04 11:34:44;;;;;;;15.75;14.05;;;6.00;99.90;;;;;;5055315;28;20301;-68
2022/04/04 11:37:18;;;;;;;17.23;15.38;;;6.00;99.90;;;;;;5052691;28;20236;-68
2022/04/04 11:39:47;;;;;;;15.82;13.95;;;6.00;99.90;;;;;;5053343;28;20253;-68
2022/04/04 11:42:15;;;;;;;15.98;14.32;;;6.00;99.90;;;;;;5053157;28;20672;-67
2022/04/04 11:44:47;;;;;;;16.08;13.52;;;5.90;99.90;;;;;;5052994;28;20230;-70
2022/04/04 11:47:14;;;;;;;20.77;15.45;;;5.90;99.90;;;;;;5053944;28;21536;-69
2022/04/04 11:49:43;;;;;;;20.65;15.23;;;6.00;99.90;;;;;;5052966;28;20195;-67
2022/04/04 11:52:14;;;;;;;23.00;17.90;;;6.00;99.90;;;;;;5050535;28;20577;-68
2022/04/04 11:54:44;;;;;;;17.92;13.93;;;6.20;99.90;;;;;;5053032;28;20674;-69
2022/04/04 11:57:12;;;;;;;15.63;12.88;;;6.10;99.90;;;;;;5052869;28;20212;-70
2022/04/04 11:59:43;;;;;;;14.82;13.13;;;6.10;99.90;;;;;;5052683;28;20549;-68
2022/04/04 12:02:11;;;;;;;17.00;12.65;;;6.10;99.90;;;;;;5052788;28;20239;-71
2022/04/04 12:04:39;;;;;;;22.02;16.02;;;6.10;99.90;;;;;;5053125;28;20572;-69
2022/04/04 12:07:08;;;;;;;16.40;13.20;;;6.10;99.90;;;;;;5052755;28;20214;-68
2022/04/04 12:09:37;;;;;;;16.63;13.50;;;6.10;99.90;;;;;;5050007;28;20202;-67
2022/04/04 12:12:07;;;;;;;17.85;15.95;;;6.10;99.90;;;;;;5053350;28;20623;-70
2022/04/04 12:14:37;;;;;;;15.88;14.25;;;6.10;99.90;;;;;;5053921;28;20219;-69
2022/04/04 12:17:04;;;;;;;14.23;12.68;;;6.10;99.90;;;;;;5053201;28;20243;-69
2022/04/04 12:19:31;;;;;;;16.50;14.20;;;6.00;99.90;;;;;;5052537;28;20298;-70
2022/04/04 12:21:59;;;;;;;17.60;15.35;;;6.10;99.90;;;;;;5052274;28;20199;-71
2022/04/04 12:27:14;;;;;;;16.40;13.77;;;6.20;99.90;;;;;;5052189;28;20207;-70
2022/04/04 12:29:46;;;;;;;16.40;13.68;;;6.20;99.90;;;;;;5050599;28;20218;-70
2022/04/04 12:32:18;;;;;;;16.98;13.48;;;6.20;99.90;;;;;;5052421;28;20200;-69
2022/04/04 12:34:55;;;;;;;13.07;11.77;;;6.30;99.90;;;;;;5052504;28;20224;-69
2022/04/04 12:37:33;;;;;;;13.18;11.73;;;6.30;99.90;;;;;;5052668;28;20220;-71
2022/04/04 12:40:16;;;;;;;11.13;9.93;;;6.40;99.90;;;;;;5051753;28;20204;-67
2022/04/04 12:42:46;;;;;;;10.55;9.55;;;6.30;99.90;;;;;;5052045;28;20192;-67
2022/04/04 12:45:13;;;;;;;12.20;10.15;;;6.30;99.90;;;;;;5052054;28;20230;-65
2022/04/04 12:47:58;;;;;;;11.20;9.60;;;6.30;99.90;;;;;;5052099;28;20188;-68
2022/04/04 12:50:37;;;;;;;10.88;9.85;;;6.40;99.90;;;;;;5043578;28;20235;-71
2022/04/04 12:53:06;;;;;;;9.77;8.82;;;6.40;99.90;;;;;;5032345;28;20210;-69
2022/04/04 12:55:33;;;;;;;10.52;9.43;;;6.50;99.90;;;;;;5053105;28;20223;-68
2022/04/04 12:58:22;;;;;;;8.48;7.68;;;6.50;99.90;;;;;;5052368;28;20215;-71
2022/04/04 13:00:49;;;;;;;10.45;9.50;;;6.50;99.90;;;;;;5051874;28;20584;-71